sensor_id;sensor_type;location;lat;lon;timestamp;P1;durP1;ratioP1;P2;durP2;ratioP2
32407;SDS011;18869;55.970;37.502;2024-01-07T00:02:07;12.13;;;8.35;;
32407;SDS011;18869;55.970;37.502;2024-01-07T00:04:35;11.93;;;7.75;;
32407;SDS011;18869;55.970;37.502;2024-01-07T00:07:02;11.52;;;8.35;;
32407;SDS011;18869;55.970;37.502;2024-01-07T00:09:29;12.07;;;7.50;;
32407;SDS011;18869;55.970;37.502;2024-01-07T00:11:58;11.57;;;8.35;;
32407;SDS011;18869;55.970;37.502;2024-01-07T00:14:25;8.93;;;8.02;;
32407;SDS011;18869;55.970;37.502;2024-01-07T00:16:53;9.27;;;7.70;;
32407;SDS011;18869;55.970;37.502;2024-01-07T00:19:21;10.20;;;8.02;;
32407;SDS011;18869;55.970;37.502;2024-01-07T00:21:48;9.82;;;7.75;;
32407;SDS011;18869;55.970;37.502;2024-01-07T00:24:16;11.90;;;8.75;;
32407;SDS011;18869;55.970;37.502;2024-01-07T00:26:45;10.45;;;8.07;;
32407;SDS011;18869;55.970;37.502;2024-01-07T00:29:12;11.52;;;8.82;;
32407;SDS011;18869;55.970;37.502;2024-01-07T00:31:40;8.85;;;7.65;;
32407;SDS011;18869;55.970;37.502;2024-01-07T00:34:07;9.82;;;7.60;;
32407;SDS011;18869;55.970;37.502;2024-01-07T00:36:35;10.45;;;8.07;;
32407;SDS011;18869;55.970;37.502;2024-01-07T00:39:02;11.35;;;8.93;;
32407;SDS011;18869;55.970;37.502;2024-01-07T00:41:29;12.85;;;8.63;;
32407;SDS011;18869;55.970;37.502;2024-01-07T00:43:56;11.27;;;7.72;;
32407;SDS011;18869;55.970;37.502;2024-01-07T00:46:23;9.23;;;7.22;;
32407;SDS011;18869;55.970;37.502;2024-01-07T00:48:51;10.18;;;7.47;;
32407;SDS011;18869;55.970;37.502;2024-01-07T00:51:18;13.07;;;7.95;;
32407;SDS011;18869;55.970;37.502;2024-01-07T00:53:47;11.75;;;8.38;;
32407;SDS011;18869;55.970;37.502;2024-01-07T00:56:15;11.00;;;7.93;;
32407;SDS011;18869;55.970;37.502;2024-01-07T00:58:42;12.57;;;7.55;;
32407;SDS011;18869;55.970;37.502;2024-01-07T01:01:08;9.32;;;8.40;;
32407;SDS011;18869;55.970;37.502;2024-01-07T01:03:36;9.93;;;7.80;;
32407;SDS011;18869;55.970;37.502;2024-01-07T01:06:03;12.68;;;8.43;;
32407;SDS011;18869;55.970;37.502;2024-01-07T01:08:30;10.10;;;9.02;;
32407;SDS011;18869;55.970;37.502;2024-01-07T01:10:59;8.98;;;7.25;;
32407;SDS011;18869;55.970;37.502;2024-01-07T01:13:26;10.85;;;8.73;;
32407;SDS011;18869;55.970;37.502;2024-01-07T01:15:53;11.82;;;7.85;;
32407;SDS011;18869;55.970;37.502;2024-01-07T01:18:21;13.73;;;8.80;;
32407;SDS011;18869;55.970;37.502;2024-01-07T01:20:48;10.20;;;9.00;;
32407;SDS011;18869;55.970;37.502;2024-01-07T01:23:15;15.25;;;9.65;;
32407;SDS011;18869;55.970;37.502;2024-01-07T01:25:42;8.93;;;7.47;;
32407;SDS011;18869;55.970;37.502;2024-01-07T01:28:10;12.10;;;8.77;;
32407;SDS011;18869;55.970;37.502;2024-01-07T01:30:36;11.38;;;7.40;;
32407;SDS011;18869;55.970;37.502;2024-01-07T01:33:04;13.70;;;9.20;;
32407;SDS011;18869;55.970;37.502;2024-01-07T01:35:31;9.27;;;8.35;;
32407;SDS011;18869;55.970;37.502;2024-01-07T01:37:58;13.55;;;8.50;;
32407;SDS011;18869;55.970;37.502;2024-01-07T01:40:25;14.68;;;7.68;;
32407;SDS011;18869;55.970;37.502;2024-01-07T01:42:52;11.40;;;9.48;;
32407;SDS011;18869;55.970;37.502;2024-01-07T01:45:20;13.98;;;8.88;;
32407;SDS011;18869;55.970;37.502;2024-01-07T01:47:47;13.00;;;7.95;;
32407;SDS011;18869;55.970;37.502;2024-01-07T01:50:14;13.38;;;8.20;;
32407;SDS011;18869;55.970;37.502;2024-01-07T01:59:06;7.90;;;7.18;;
32407;SDS011;18869;55.970;37.502;2024-01-07T02:01:35;11.20;;;7.00;;
32407;SDS011;18869;55.970;37.502;2024-01-07T02:29:04;12.02;;;8.75;;
32407;SDS011;18869;55.970;37.502;2024-01-07T02:31:31;14.75;;;10.45;;
32407;SDS011;18869;55.970;37.502;2024-01-07T03:45:59;14.63;;;8.77;;
32407;SDS011;18869;55.970;37.502;2024-01-07T03:48:26;9.70;;;7.12;;
32407;SDS011;18869;55.970;37.502;2024-01-07T03:50:53;8.63;;;7.85;;
32407;SDS011;18869;55.970;37.502;2024-01-07T03:53:20;12.70;;;9.50;;
32407;SDS011;18869;55.970;37.502;2024-01-07T03:55:47;18.02;;;9.18;;
32407;SDS011;18869;55.970;37.502;2024-01-07T03:58:14;11.07;;;8.10;;
32407;SDS011;18869;55.970;37.502;2024-01-07T04:00:41;8.65;;;7.87;;
32407;SDS011;18869;55.970;37.502;2024-01-07T04:03:09;8.18;;;7.22;;
32407;SDS011;18869;55.970;37.502;2024-01-07T04:05:36;12.88;;;8.10;;
32407;SDS011;18869;55.970;37.502;2024-01-07T04:08:03;15.75;;;10.52;;
32407;SDS011;18869;55.970;37.502;2024-01-07T04:10:31;11.05;;;9.38;;
32407;SDS011;18869;55.970;37.502;2024-01-07T04:12:57;10.00;;;9.15;;
32407;SDS011;18869;55.970;37.502;2024-01-07T04:15:24;9.52;;;8.57;;
32407;SDS011;18869;55.970;37.502;2024-01-07T04:17:52;12.63;;;8.90;;
32407;SDS011;18869;55.970;37.502;2024-01-07T04:20:21;11.55;;;9.95;;
32407;SDS011;18869;55.970;37.502;2024-01-07T04:22:49;16.95;;;9.27;;
32407;SDS011;18869;55.970;37.502;2024-01-07T04:25:16;10.43;;;8.50;;
32407;SDS011;18869;55.970;37.502;2024-01-07T04:27:44;8.88;;;7.97;;
32407;SDS011;18869;55.970;37.502;2024-01-07T04:30:11;11.27;;;9.05;;
32407;SDS011;18869;55.970;37.502;2024-01-07T04:32:38;13.07;;;8.48;;
32407;SDS011;18869;55.970;37.502;2024-01-07T04:35:05;9.77;;;8.90;;
32407;SDS011;18869;55.970;37.502;2024-01-07T04:37:35;12.15;;;7.60;;
32407;SDS011;18869;55.970;37.502;2024-01-07T04:40:03;12.57;;;8.52;;
32407;SDS011;18869;55.970;37.502;2024-01-07T04:42:32;13.15;;;9.48;;
32407;SDS011;18869;55.970;37.502;2024-01-07T04:44:58;8.68;;;7.82;;
32407;SDS011;18869;55.970;37.502;2024-01-07T04:47:26;8.57;;;7.60;;
32407;SDS011;18869;55.970;37.502;2024-01-07T04:49:53;8.63;;;7.78;;
32407;SDS011;18869;55.970;37.502;2024-01-07T04:52:21;9.98;;;8.70;;
32407;SDS011;18869;55.970;37.502;2024-01-07T04:54:50;7.72;;;7.12;;
32407;SDS011;18869;55.970;37.502;2024-01-07T04:57:17;10.25;;;7.47;;
32407;SDS011;18869;55.970;37.502;2024-01-07T04:59:44;13.27;;;8.15;;
32407;SDS011;18869;55.970;37.502;2024-01-07T05:02:11;10.95;;;8.63;;
32407;SDS011;18869;55.970;37.502;2024-01-07T05:04:38;8.75;;;7.78;;
32407;SDS011;18869;55.970;37.502;2024-01-07T05:07:05;9.57;;;8.65;;
32407;SDS011;18869;55.970;37.502;2024-01-07T05:09:32;13.02;;;9.30;;
32407;SDS011;18869;55.970;37.502;2024-01-07T05:12:00;14.35;;;8.63;;
32407;SDS011;18869;55.970;37.502;2024-01-07T05:14:27;8.43;;;7.62;;
32407;SDS011;18869;55.970;37.502;2024-01-07T05:16:54;9.80;;;8.40;;
32407;SDS011;18869;55.970;37.502;2024-01-07T05:19:21;12.70;;;9.38;;
32407;SDS011;18869;55.970;37.502;2024-01-07T05:21:49;8.57;;;7.85;;
32407;SDS011;18869;55.970;37.502;2024-01-07T05:24:16;8.45;;;7.53;;
32407;SDS011;18869;55.970;37.502;2024-01-07T05:26:43;7.68;;;6.97;;
32407;SDS011;18869;55.970;37.502;2024-01-07T05:29:11;9.35;;;8.10;;
32407;SDS011;18869;55.970;37.502;2024-01-07T05:31:39;8.00;;;7.10;;
32407;SDS011;18869;55.970;37.502;2024-01-07T05:34:06;13.82;;;9.50;;
32407;SDS011;18869;55.970;37.502;2024-01-07T05:36:33;9.85;;;8.85;;
32407;SDS011;18869;55.970;37.502;2024-01-07T05:39:00;11.27;;;9.32;;
32407;SDS011;18869;55.970;37.502;2024-01-07T05:41:27;8.13;;;7.28;;
32407;SDS011;18869;55.970;37.502;2024-01-07T05:43:55;7.87;;;7.28;;
32407;SDS011;18869;55.970;37.502;2024-01-07T05:46:25;7.65;;;6.93;;
32407;SDS011;18869;55.970;37.502;2024-01-07T05:48:52;8.10;;;7.28;;
32407;SDS011;18869;55.970;37.502;2024-01-07T05:51:22;10.50;;;8.50;;
32407;SDS011;18869;55.970;37.502;2024-01-07T05:53:51;9.25;;;8.35;;
32407;SDS011;18869;55.970;37.502;2024-01-07T05:56:18;13.85;;;8.88;;
32407;SDS011;18869;55.970;37.502;2024-01-07T05:58:45;8.80;;;7.55;;
32407;SDS011;18869;55.970;37.502;2024-01-07T06:01:17;9.65;;;8.77;;
32407;SDS011;18869;55.970;37.502;2024-01-07T06:03:46;9.32;;;7.50;;
32407;SDS011;18869;55.970;37.502;2024-01-07T06:06:14;10.32;;;7.78;;
32407;SDS011;18869;55.970;37.502;2024-01-07T06:08:41;8.70;;;7.90;;
32407;SDS011;18869;55.970;37.502;2024-01-07T06:11:08;8.75;;;7.97;;
32407;SDS011;18869;55.970;37.502;2024-01-07T06:13:36;8.45;;;7.32;;
32407;SDS011;18869;55.970;37.502;2024-01-07T06:16:03;9.38;;;8.55;;
32407;SDS011;18869;55.970;37.502;2024-01-07T06:18:31;11.27;;;8.20;;
32407;SDS011;18869;55.970;37.502;2024-01-07T06:20:58;11.23;;;8.32;;
32407;SDS011;18869;55.970;37.502;2024-01-07T06:23:25;10.05;;;8.68;;
32407;SDS011;18869;55.970;37.502;2024-01-07T06:25:53;10.10;;;8.65;;
32407;SDS011;18869;55.970;37.502;2024-01-07T06:28:20;7.57;;;7.03;;
32407;SDS011;18869;55.970;37.502;2024-01-07T06:30:47;9.57;;;8.13;;
32407;SDS011;18869;55.970;37.502;2024-01-07T06:33:16;9.20;;;7.65;;
32407;SDS011;18869;55.970;37.502;2024-01-07T06:35:43;12.65;;;8.90;;
32407;SDS011;18869;55.970;37.502;2024-01-07T06:38:14;8.20;;;7.50;;
32407;SDS011;18869;55.970;37.502;2024-01-07T06:40:42;10.00;;;7.35;;
32407;SDS011;18869;55.970;37.502;2024-01-07T06:43:12;9.38;;;7.82;;
32407;SDS011;18869;55.970;37.502;2024-01-07T06:45:39;9.68;;;8.73;;
32407;SDS011;18869;55.970;37.502;2024-01-07T06:48:07;16.08;;;10.32;;
32407;SDS011;18869;55.970;37.502;2024-01-07T06:50:34;11.70;;;9.80;;
32407;SDS011;18869;55.970;37.502;2024-01-07T06:53:01;9.70;;;8.80;;
32407;SDS011;18869;55.970;37.502;2024-01-07T06:55:30;17.27;;;10.82;;
32407;SDS011;18869;55.970;37.502;2024-01-07T06:57:57;12.60;;;9.32;;
32407;SDS011;18869;55.970;37.502;2024-01-07T07:00:23;10.45;;;8.60;;
32407;SDS011;18869;55.970;37.502;2024-01-07T07:02:51;11.90;;;7.82;;
32407;SDS011;18869;55.970;37.502;2024-01-07T07:05:18;8.35;;;7.65;;
32407;SDS011;18869;55.970;37.502;2024-01-07T07:07:45;7.57;;;6.85;;
32407;SDS011;18869;55.970;37.502;2024-01-07T07:10:12;8.95;;;7.00;;
32407;SDS011;18869;55.970;37.502;2024-01-07T07:12:41;11.32;;;8.65;;
32407;SDS011;18869;55.970;37.502;2024-01-07T07:15:08;9.93;;;8.05;;
32407;SDS011;18869;55.970;37.502;2024-01-07T07:17:36;10.73;;;7.53;;
32407;SDS011;18869;55.970;37.502;2024-01-07T07:20:03;13.80;;;8.50;;
32407;SDS011;18869;55.970;37.502;2024-01-07T07:22:31;10.90;;;8.48;;
32407;SDS011;18869;55.970;37.502;2024-01-07T07:24:58;9.45;;;6.82;;
32407;SDS011;18869;55.970;37.502;2024-01-07T07:27:25;12.73;;;8.95;;
32407;SDS011;18869;55.970;37.502;2024-01-07T07:29:53;20.02;;;12.10;;
32407;SDS011;18869;55.970;37.502;2024-01-07T07:32:20;13.70;;;9.65;;
32407;SDS011;18869;55.970;37.502;2024-01-07T07:34:47;9.93;;;7.80;;
32407;SDS011;18869;55.970;37.502;2024-01-07T07:37:14;11.90;;;8.60;;
32407;SDS011;18869;55.970;37.502;2024-01-07T07:39:43;11.63;;;9.00;;
32407;SDS011;18869;55.970;37.502;2024-01-07T07:42:10;8.50;;;7.70;;
32407;SDS011;18869;55.970;37.502;2024-01-07T07:44:37;10.63;;;8.95;;
32407;SDS011;18869;55.970;37.502;2024-01-07T07:47:05;9.43;;;7.68;;
32407;SDS011;18869;55.970;37.502;2024-01-07T07:49:33;10.93;;;8.67;;
32407;SDS011;18869;55.970;37.502;2024-01-07T07:52:01;11.70;;;9.03;;
32407;SDS011;18869;55.970;37.502;2024-01-07T07:54:30;9.53;;;8.53;;
32407;SDS011;18869;55.970;37.502;2024-01-07T07:56:59;13.07;;;10.33;;
32407;SDS011;18869;55.970;37.502;2024-01-07T07:59:26;13.03;;;9.20;;
32407;SDS011;18869;55.970;37.502;2024-01-07T08:01:53;15.90;;;9.73;;
32407;SDS011;18869;55.970;37.502;2024-01-07T08:04:24;9.63;;;8.63;;
32407;SDS011;18869;55.970;37.502;2024-01-07T08:06:54;10.97;;;9.87;;
32407;SDS011;18869;55.970;37.502;2024-01-07T08:09:22;10.80;;;8.97;;
32407;SDS011;18869;55.970;37.502;2024-01-07T08:11:51;16.23;;;10.37;;
32407;SDS011;18869;55.970;37.502;2024-01-07T08:14:18;18.23;;;11.87;;
32407;SDS011;18869;55.970;37.502;2024-01-07T08:16:45;17.73;;;12.27;;
32407;SDS011;18869;55.970;37.502;2024-01-07T08:19:13;12.63;;;9.40;;
32407;SDS011;18869;55.970;37.502;2024-01-07T08:21:40;13.40;;;9.50;;
32407;SDS011;18869;55.970;37.502;2024-01-07T08:24:07;10.57;;;8.97;;
32407;SDS011;18869;55.970;37.502;2024-01-07T08:26:36;11.90;;;9.13;;
32407;SDS011;18869;55.970;37.502;2024-01-07T08:29:03;9.50;;;8.50;;
32407;SDS011;18869;55.970;37.502;2024-01-07T08:31:30;10.47;;;8.77;;
32407;SDS011;18869;55.970;37.502;2024-01-07T08:33:57;12.80;;;8.90;;
32407;SDS011;18869;55.970;37.502;2024-01-07T08:36:25;11.00;;;8.70;;
32407;SDS011;18869;55.970;37.502;2024-01-07T08:38:53;11.13;;;8.63;;
32407;SDS011;18869;55.970;37.502;2024-01-07T08:41:20;12.60;;;9.03;;
32407;SDS011;18869;55.970;37.502;2024-01-07T08:43:47;12.30;;;10.40;;
32407;SDS011;18869;55.970;37.502;2024-01-07T08:46:14;12.27;;;9.17;;
32407;SDS011;18869;55.970;37.502;2024-01-07T08:48:42;11.87;;;8.67;;
32407;SDS011;18869;55.970;37.502;2024-01-07T08:51:09;8.70;;;7.80;;
32407;SDS011;18869;55.970;37.502;2024-01-07T08:53:36;10.73;;;7.77;;
32407;SDS011;18869;55.970;37.502;2024-01-07T08:56:04;9.67;;;8.23;;
32407;SDS011;18869;55.970;37.502;2024-01-07T08:58:32;9.27;;;8.37;;
32407;SDS011;18869;55.970;37.502;2024-01-07T09:00:59;10.97;;;7.93;;
32407;SDS011;18869;55.970;37.502;2024-01-07T09:03:27;9.47;;;8.07;;
32407;SDS011;18869;55.970;37.502;2024-01-07T09:05:53;10.53;;;7.93;;
32407;SDS011;18869;55.970;37.502;2024-01-07T09:08:21;13.00;;;7.80;;
32407;SDS011;18869;55.970;37.502;2024-01-07T09:10:51;10.00;;;8.30;;
32407;SDS011;18869;55.970;37.502;2024-01-07T09:13:18;11.20;;;7.47;;
32407;SDS011;18869;55.970;37.502;2024-01-07T09:15:45;11.13;;;7.83;;
32407;SDS011;18869;55.970;37.502;2024-01-07T09:18:13;8.70;;;7.77;;
32407;SDS011;18869;55.970;37.502;2024-01-07T09:20:40;10.67;;;8.17;;
32407;SDS011;18869;55.970;37.502;2024-01-07T09:23:07;11.33;;;9.30;;
32407;SDS011;18869;55.970;37.502;2024-01-07T09:25:35;9.73;;;7.47;;
32407;SDS011;18869;55.970;37.502;2024-01-07T09:28:02;11.07;;;7.50;;
32407;SDS011;18869;55.970;37.502;2024-01-07T09:30:31;11.57;;;8.60;;
32407;SDS011;18869;55.970;37.502;2024-01-07T09:32:59;11.33;;;7.30;;
32407;SDS011;18869;55.970;37.502;2024-01-07T09:35:25;11.27;;;7.60;;
32407;SDS011;18869;55.970;37.502;2024-01-07T09:37:52;8.13;;;7.33;;
32407;SDS011;18869;55.970;37.502;2024-01-07T09:40:21;9.63;;;7.33;;
32407;SDS011;18869;55.970;37.502;2024-01-07T09:42:48;10.53;;;7.67;;
32407;SDS011;18869;55.970;37.502;2024-01-07T09:45:16;10.30;;;8.00;;
32407;SDS011;18869;55.970;37.502;2024-01-07T09:47:46;7.90;;;6.60;;
32407;SDS011;18869;55.970;37.502;2024-01-07T09:50:13;9.93;;;7.20;;
32407;SDS011;18869;55.970;37.502;2024-01-07T09:52:43;11.27;;;9.17;;
32407;SDS011;18869;55.970;37.502;2024-01-07T09:55:12;11.53;;;7.67;;
32407;SDS011;18869;55.970;37.502;2024-01-07T09:57:41;10.60;;;7.27;;
32407;SDS011;18869;55.970;37.502;2024-01-07T10:00:11;8.87;;;7.43;;
32407;SDS011;18869;55.970;37.502;2024-01-07T10:02:42;11.00;;;7.60;;
32407;SDS011;18869;55.970;37.502;2024-01-07T10:05:10;14.07;;;8.17;;
32407;SDS011;18869;55.970;37.502;2024-01-07T10:07:37;10.27;;;7.37;;
32407;SDS011;18869;55.970;37.502;2024-01-07T10:10:12;11.47;;;7.73;;
32407;SDS011;18869;55.970;37.502;2024-01-07T10:12:40;11.80;;;7.53;;
32407;SDS011;18869;55.970;37.502;2024-01-07T10:15:08;9.17;;;7.60;;
32407;SDS011;18869;55.970;37.502;2024-01-07T10:17:35;11.27;;;8.40;;
32407;SDS011;18869;55.970;37.502;2024-01-07T10:20:04;11.97;;;8.33;;
32407;SDS011;18869;55.970;37.502;2024-01-07T10:22:36;9.93;;;8.03;;
32407;SDS011;18869;55.970;37.502;2024-01-07T10:25:04;11.83;;;8.53;;
32407;SDS011;18869;55.970;37.502;2024-01-07T10:27:33;10.33;;;7.87;;
32407;SDS011;18869;55.970;37.502;2024-01-07T10:30:02;8.70;;;6.70;;
32407;SDS011;18869;55.970;37.502;2024-01-07T10:32:35;9.43;;;7.10;;
32407;SDS011;18869;55.970;37.502;2024-01-07T10:35:03;8.63;;;6.53;;
32407;SDS011;18869;55.970;37.502;2024-01-07T10:37:32;8.47;;;7.43;;
32407;SDS011;18869;55.970;37.502;2024-01-07T10:40:02;10.33;;;7.37;;
32407;SDS011;18869;55.970;37.502;2024-01-07T10:42:32;12.07;;;7.83;;
32407;SDS011;18869;55.970;37.502;2024-01-07T10:45:00;10.53;;;7.23;;
32407;SDS011;18869;55.970;37.502;2024-01-07T10:47:32;9.53;;;7.63;;
32407;SDS011;18869;55.970;37.502;2024-01-07T10:50:02;12.83;;;8.43;;
32407;SDS011;18869;55.970;37.502;2024-01-07T10:52:31;10.07;;;7.03;;
32407;SDS011;18869;55.970;37.502;2024-01-07T10:55:01;8.00;;;6.60;;
32407;SDS011;18869;55.970;37.502;2024-01-07T10:57:38;9.67;;;7.77;;
32407;SDS011;18869;55.970;37.502;2024-01-07T11:00:09;9.00;;;7.07;;
32407;SDS011;18869;55.970;37.502;2024-01-07T11:02:51;10.90;;;8.03;;
32407;SDS011;18869;55.970;37.502;2024-01-07T11:05:24;10.07;;;7.70;;
32407;SDS011;18869;55.970;37.502;2024-01-07T11:08:13;11.20;;;7.97;;
32407;SDS011;18869;55.970;37.502;2024-01-07T11:10:47;12.80;;;8.37;;
32407;SDS011;18869;55.970;37.502;2024-01-07T11:13:31;12.97;;;7.87;;
32407;SDS011;18869;55.970;37.502;2024-01-07T11:15:58;8.57;;;7.57;;
32407;SDS011;18869;55.970;37.502;2024-01-07T11:18:26;9.77;;;7.50;;
32407;SDS011;18869;55.970;37.502;2024-01-07T11:20:58;8.80;;;7.90;;
32407;SDS011;18869;55.970;37.502;2024-01-07T11:23:26;10.03;;;7.80;;
32407;SDS011;18869;55.970;37.502;2024-01-07T11:25:57;8.70;;;7.60;;
32407;SDS011;18869;55.970;37.502;2024-01-07T11:28:46;7.43;;;6.70;;
32407;SDS011;18869;55.970;37.502;2024-01-07T11:31:15;7.23;;;6.53;;
32407;SDS011;18869;55.970;37.502;2024-01-07T11:33:44;8.80;;;7.27;;
32407;SDS011;18869;55.970;37.502;2024-01-07T11:36:12;10.37;;;7.43;;
32407;SDS011;18869;55.970;37.502;2024-01-07T11:38:43;9.40;;;7.43;;
32407;SDS011;18869;55.970;37.502;2024-01-07T11:41:12;9.33;;;7.90;;
32407;SDS011;18869;55.970;37.502;2024-01-07T11:43:52;8.43;;;7.33;;
32407;SDS011;18869;55.970;37.502;2024-01-07T11:46:25;9.17;;;7.60;;
32407;SDS011;18869;55.970;37.502;2024-01-07T11:48:53;9.37;;;7.43;;
32407;SDS011;18869;55.970;37.502;2024-01-07T11:51:24;9.57;;;8.10;;
32407;SDS011;18869;55.970;37.502;2024-01-07T11:53:52;9.73;;;7.73;;
32407;SDS011;18869;55.970;37.502;2024-01-07T11:56:20;10.40;;;7.53;;
32407;SDS011;18869;55.970;37.502;2024-01-07T11:58:49;10.80;;;7.57;;
32407;SDS011;18869;55.970;37.502;2024-01-07T12:01:16;9.67;;;7.37;;
32407;SDS011;18869;55.970;37.502;2024-01-07T12:03:45;8.13;;;7.13;;
32407;SDS011;18869;55.970;37.502;2024-01-07T12:06:12;8.23;;;7.30;;
32407;SDS011;18869;55.970;37.502;2024-01-07T12:08:40;12.83;;;7.87;;
32407;SDS011;18869;55.970;37.502;2024-01-07T12:11:07;8.43;;;6.90;;
32407;SDS011;18869;55.970;37.502;2024-01-07T12:13:37;8.33;;;7.17;;
32407;SDS011;18869;55.970;37.502;2024-01-07T12:16:05;11.03;;;8.70;;
32407;SDS011;18869;55.970;37.502;2024-01-07T12:18:34;12.60;;;9.27;;
32407;SDS011;18869;55.970;37.502;2024-01-07T12:21:04;14.30;;;9.93;;
32407;SDS011;18869;55.970;37.502;2024-01-07T12:23:34;12.13;;;9.27;;
32407;SDS011;18869;55.970;37.502;2024-01-07T12:26:07;9.90;;;8.47;;
32407;SDS011;18869;55.970;37.502;2024-01-07T12:28:35;10.23;;;8.20;;
32407;SDS011;18869;55.970;37.502;2024-01-07T12:31:03;10.67;;;7.83;;
32407;SDS011;18869;55.970;37.502;2024-01-07T12:33:30;11.07;;;8.60;;
32407;SDS011;18869;55.970;37.502;2024-01-07T12:35:57;9.57;;;7.67;;
32407;SDS011;18869;55.970;37.502;2024-01-07T12:38:27;10.77;;;8.80;;
32407;SDS011;18869;55.970;37.502;2024-01-07T12:40:56;10.10;;;8.80;;
32407;SDS011;18869;55.970;37.502;2024-01-07T12:43:23;10.63;;;9.00;;
32407;SDS011;18869;55.970;37.502;2024-01-07T12:45:54;9.73;;;8.33;;
32407;SDS011;18869;55.970;37.502;2024-01-07T12:48:22;10.43;;;7.83;;
32407;SDS011;18869;55.970;37.502;2024-01-07T12:50:51;12.70;;;9.20;;
32407;SDS011;18869;55.970;37.502;2024-01-07T12:53:18;10.80;;;8.50;;
32407;SDS011;18869;55.970;37.502;2024-01-07T12:55:45;9.27;;;8.13;;
32407;SDS011;18869;55.970;37.502;2024-01-07T12:58:12;10.47;;;8.53;;
32407;SDS011;18869;55.970;37.502;2024-01-07T13:00:42;10.93;;;8.00;;
32407;SDS011;18869;55.970;37.502;2024-01-07T13:03:13;8.83;;;7.97;;
32407;SDS011;18869;55.970;37.502;2024-01-07T13:05:43;9.47;;;8.37;;
32407;SDS011;18869;55.970;37.502;2024-01-07T13:08:11;12.60;;;8.57;;
32407;SDS011;18869;55.970;37.502;2024-01-07T13:10:39;12.17;;;9.47;;
32407;SDS011;18869;55.970;37.502;2024-01-07T13:13:09;12.70;;;10.00;;
32407;SDS011;18869;55.970;37.502;2024-01-07T13:15:40;12.57;;;9.07;;
32407;SDS011;18869;55.970;37.502;2024-01-07T13:18:08;9.83;;;8.07;;
32407;SDS011;18869;55.970;37.502;2024-01-07T13:20:38;7.97;;;7.07;;
32407;SDS011;18869;55.970;37.502;2024-01-07T13:23:08;10.45;;;8.45;;
32407;SDS011;18869;55.970;37.502;2024-01-07T13:25:35;13.52;;;8.43;;
32407;SDS011;18869;55.970;37.502;2024-01-07T13:28:02;11.90;;;8.63;;
32407;SDS011;18869;55.970;37.502;2024-01-07T13:30:30;12.55;;;8.50;;
32407;SDS011;18869;55.970;37.502;2024-01-07T13:32:57;11.57;;;8.95;;
32407;SDS011;18869;55.970;37.502;2024-01-07T13:35:24;12.37;;;8.77;;
32407;SDS011;18869;55.970;37.502;2024-01-07T13:37:54;11.02;;;9.07;;
32407;SDS011;18869;55.970;37.502;2024-01-07T13:40:21;9.82;;;8.07;;
32407;SDS011;18869;55.970;37.502;2024-01-07T13:42:47;9.60;;;8.45;;
32407;SDS011;18869;55.970;37.502;2024-01-07T13:45:17;12.10;;;9.52;;
32407;SDS011;18869;55.970;37.502;2024-01-07T13:47:54;12.98;;;8.68;;
32407;SDS011;18869;55.970;37.502;2024-01-07T13:50:40;12.27;;;8.23;;
32407;SDS011;18869;55.970;37.502;2024-01-07T13:53:10;9.00;;;7.82;;
32407;SDS011;18869;55.970;37.502;2024-01-07T13:55:37;11.20;;;9.48;;
32407;SDS011;18869;55.970;37.502;2024-01-07T13:58:04;10.05;;;8.82;;
32407;SDS011;18869;55.970;37.502;2024-01-07T14:00:31;18.98;;;11.57;;
32407;SDS011;18869;55.970;37.502;2024-01-07T14:02:59;19.25;;;10.30;;
32407;SDS011;18869;55.970;37.502;2024-01-07T14:05:27;19.37;;;11.65;;
32407;SDS011;18869;55.970;37.502;2024-01-07T14:07:54;16.10;;;10.40;;
32407;SDS011;18869;55.970;37.502;2024-01-07T14:10:22;21.77;;;12.25;;
32407;SDS011;18869;55.970;37.502;2024-01-07T14:12:49;12.70;;;10.10;;
32407;SDS011;18869;55.970;37.502;2024-01-07T14:15:17;16.70;;;11.55;;
32407;SDS011;18869;55.970;37.502;2024-01-07T14:17:45;19.77;;;12.93;;
32407;SDS011;18869;55.970;37.502;2024-01-07T14:20:12;20.50;;;11.48;;
32407;SDS011;18869;55.970;37.502;2024-01-07T14:22:39;18.77;;;12.90;;
32407;SDS011;18869;55.970;37.502;2024-01-07T14:25:14;14.73;;;9.85;;
32407;SDS011;18869;55.970;37.502;2024-01-07T14:27:42;17.45;;;10.40;;
32407;SDS011;18869;55.970;37.502;2024-01-07T14:30:11;12.25;;;9.52;;
32407;SDS011;18869;55.970;37.502;2024-01-07T14:32:40;10.55;;;8.55;;
32407;SDS011;18869;55.970;37.502;2024-01-07T14:35:07;13.65;;;9.65;;
32407;SDS011;18869;55.970;37.502;2024-01-07T14:37:35;13.45;;;9.98;;
32407;SDS011;18869;55.970;37.502;2024-01-07T14:40:02;24.17;;;10.60;;
32407;SDS011;18869;55.970;37.502;2024-01-07T14:42:30;16.98;;;10.30;;
32407;SDS011;18869;55.970;37.502;2024-01-07T14:44:58;19.77;;;10.15;;
32407;SDS011;18869;55.970;37.502;2024-01-07T14:47:26;16.00;;;9.45;;
32407;SDS011;18869;55.970;37.502;2024-01-07T14:49:53;11.55;;;9.13;;
32407;SDS011;18869;55.970;37.502;2024-01-07T14:52:21;19.62;;;12.37;;
32407;SDS011;18869;55.970;37.502;2024-01-07T14:54:48;16.35;;;11.05;;
32407;SDS011;18869;55.970;37.502;2024-01-07T14:57:15;14.98;;;9.80;;
32407;SDS011;18869;55.970;37.502;2024-01-07T14:59:42;21.92;;;11.55;;
32407;SDS011;18869;55.970;37.502;2024-01-07T15:02:10;16.37;;;9.50;;
32407;SDS011;18869;55.970;37.502;2024-01-07T15:04:37;14.00;;;8.82;;
32407;SDS011;18869;55.970;37.502;2024-01-07T15:07:04;14.20;;;9.13;;
32407;SDS011;18869;55.970;37.502;2024-01-07T15:09:31;9.88;;;8.85;;
32407;SDS011;18869;55.970;37.502;2024-01-07T15:11:58;9.40;;;8.40;;
32407;SDS011;18869;55.970;37.502;2024-01-07T15:14:25;30.48;;;14.60;;
32407;SDS011;18869;55.970;37.502;2024-01-07T15:16:53;22.87;;;11.85;;
32407;SDS011;18869;55.970;37.502;2024-01-07T15:19:21;27.98;;;12.50;;
32407;SDS011;18869;55.970;37.502;2024-01-07T15:21:49;23.52;;;13.68;;
32407;SDS011;18869;55.970;37.502;2024-01-07T15:24:16;29.27;;;14.73;;
32407;SDS011;18869;55.970;37.502;2024-01-07T15:26:43;25.80;;;16.30;;
32407;SDS011;18869;55.970;37.502;2024-01-07T15:29:10;19.87;;;11.80;;
32407;SDS011;18869;55.970;37.502;2024-01-07T15:31:38;20.55;;;11.25;;
32407;SDS011;18869;55.970;37.502;2024-01-07T15:34:05;15.88;;;10.88;;
32407;SDS011;18869;55.970;37.502;2024-01-07T15:36:34;10.70;;;9.68;;
32407;SDS011;18869;55.970;37.502;2024-01-07T15:39:03;17.65;;;11.05;;
32407;SDS011;18869;55.970;37.502;2024-01-07T15:41:37;10.43;;;9.25;;
32407;SDS011;18869;55.970;37.502;2024-01-07T15:44:04;13.43;;;9.00;;
32407;SDS011;18869;55.970;37.502;2024-01-07T15:46:31;15.50;;;10.15;;
32407;SDS011;18869;55.970;37.502;2024-01-07T15:49:01;12.70;;;9.77;;
32407;SDS011;18869;55.970;37.502;2024-01-07T15:51:28;13.25;;;10.45;;
32407;SDS011;18869;55.970;37.502;2024-01-07T15:53:56;14.50;;;10.48;;
32407;SDS011;18869;55.970;37.502;2024-01-07T15:56:23;16.83;;;10.93;;
32407;SDS011;18869;55.970;37.502;2024-01-07T15:58:50;14.68;;;9.43;;
32407;SDS011;18869;55.970;37.502;2024-01-07T16:01:17;15.07;;;10.25;;
32407;SDS011;18869;55.970;37.502;2024-01-07T16:03:46;17.90;;;10.45;;
32407;SDS011;18869;55.970;37.502;2024-01-07T16:06:14;14.10;;;11.88;;
32407;SDS011;18869;55.970;37.502;2024-01-07T16:08:41;15.80;;;10.77;;
32407;SDS011;18869;55.970;37.502;2024-01-07T16:11:12;20.37;;;12.05;;
32407;SDS011;18869;55.970;37.502;2024-01-07T16:13:43;19.48;;;12.15;;